createdAt,value
2023-02-23T00:02:08.476Z,33.80
2023-02-23T00:04:37.402Z,28.60
2023-02-23T00:07:06.690Z,31.50
2023-02-23T00:09:37.844Z,27.90
2023-02-23T00:12:09.785Z,33.40
2023-02-23T00:14:38.416Z,28.20
2023-02-23T00:17:14.655Z,32.30
2023-02-23T00:19:45.955Z,31.90
2023-02-23T00:22:13.740Z,32.60
2023-02-23T00:24:47.252Z,27.40
2023-02-23T00:27:18.962Z,26.20
2023-02-23T00:29:49.658Z,32.80
2023-02-23T00:32:21.385Z,30.90
2023-02-23T00:34:49.819Z,32.60
2023-02-23T00:37:18.549Z,29.20
2023-02-23T00:39:49.677Z,25.50
2023-02-23T00:42:17.300Z,29.50
2023-02-23T00:44:47.540Z,26.90
2023-02-23T00:47:15.539Z,28.40
2023-02-23T00:49:44.987Z,28.50
2023-02-23T00:52:14.672Z,27.40
2023-02-23T00:54:42.435Z,31.10
2023-02-23T00:57:10.126Z,29.20
2023-02-23T00:59:37.963Z,27.70
2023-02-23T01:02:05.717Z,27.90
2023-02-23T01:04:33.431Z,29.20
2023-02-23T01:07:04.312Z,31.10
2023-02-23T01:09:32.843Z,28.40
2023-02-23T01:12:07.551Z,27.90
2023-02-23T01:14:37.685Z,30.90
2023-02-23T01:17:05.465Z,26.60
2023-02-23T01:19:34.332Z,31.10
2023-02-23T01:22:04.488Z,34.10
2023-02-23T01:24:32.517Z,28.60
2023-02-23T01:27:00.278Z,30.80
2023-02-23T01:29:28.257Z,27.80
2023-02-23T01:31:56.134Z,27.40
2023-02-23T01:34:25.677Z,29.90
2023-02-23T01:36:53.422Z,30.90
2023-02-23T01:39:21.280Z,35.20
2023-02-23T01:41:51.719Z,25.90
2023-02-23T01:44:19.402Z,28.90
2023-02-23T01:46:49.274Z,27.90
2023-02-23T01:49:20.908Z,28.50
2023-02-23T01:51:52.692Z,34.60
2023-02-23T01:54:25.314Z,28.30
2023-02-23T01:56:58.333Z,30.30
2023-02-23T01:59:36.422Z,29.30
2023-02-23T02:02:05.378Z,30.20
2023-02-23T02:04:44.218Z,27.50
2023-02-23T02:07:15.138Z,30.00
2023-02-23T02:10:03.534Z,31.10
2023-02-23T02:12:31.191Z,29.80
2023-02-23T02:15:00.269Z,29.30
2023-02-23T02:17:40.064Z,29.20
2023-02-23T02:20:26.597Z,27.50
2023-02-23T02:23:09.684Z,28.70
2023-02-23T02:25:46.260Z,27.00
2023-02-23T02:28:46.620Z,29.60
2023-02-23T02:31:26.033Z,28.50
2023-02-23T02:34:32.622Z,28.10
2023-02-23T02:37:18.243Z,31.40
2023-02-23T02:40:16.409Z,29.00
2023-02-23T02:43:00.627Z,26.80
2023-02-23T02:45:37.438Z,31.50
2023-02-23T02:48:11.260Z,30.20
2023-02-23T02:50:53.189Z,28.30
2023-02-23T02:53:45.655Z,28.30
2023-02-23T02:56:19.744Z,25.90
2023-02-23T02:58:50.173Z,30.30
2023-02-23T03:01:37.023Z,32.20
2023-02-23T03:04:40.836Z,28.30
2023-02-23T03:07:42.279Z,33.30
2023-02-23T03:11:24.476Z,30.70
2023-02-23T03:14:15.018Z,31.60
2023-02-23T03:17:04.920Z,29.30
2023-02-23T03:19:55.846Z,29.70
2023-02-23T03:22:50.681Z,27.20
2023-02-23T03:25:46.415Z,32.70
2023-02-23T03:28:39.930Z,32.10
2023-02-23T03:31:32.635Z,25.20
2023-02-23T03:34:34.419Z,29.40
2023-02-23T03:37:33.734Z,26.70
2023-02-23T03:40:39.284Z,29.60
2023-02-23T03:43:30.679Z,30.80
2023-02-23T03:46:19.685Z,36.20
2023-02-23T03:49:07.023Z,30.40
2023-02-23T03:51:55.986Z,29.20
2023-02-23T03:55:07.999Z,32.20
2023-02-23T03:57:56.405Z,26.50
2023-02-23T04:00:47.906Z,30.70
2023-02-23T04:03:36.865Z,31.40
2023-02-23T04:06:26.209Z,31.40
2023-02-23T04:09:13.182Z,28.90
2023-02-23T04:12:06.300Z,34.70
2023-02-23T04:14:40.183Z,33.90
2023-02-23T04:17:08.463Z,33.70
2023-02-23T04:19:36.318Z,30.40
2023-02-23T04:22:04.065Z,28.80
2023-02-23T04:24:31.728Z,33.70
2023-02-23T04:26:59.413Z,29.70
2023-02-23T04:29:27.050Z,30.90
2023-02-23T04:31:54.765Z,28.50
2023-02-23T04:34:22.809Z,36.40
2023-02-23T04:36:51.407Z,32.50
2023-02-23T04:39:19.294Z,28.10
2023-02-23T04:41:48.968Z,34.80
2023-02-23T04:44:17.742Z,35.00
2023-02-23T04:46:45.697Z,36.40
2023-02-23T04:49:13.595Z,31.50
2023-02-23T04:51:41.275Z,36.50
2023-02-23T04:54:09.853Z,35.20
2023-02-23T04:56:37.596Z,33.00
2023-02-23T04:59:05.404Z,37.90
2023-02-23T05:01:33.400Z,32.80
2023-02-23T05:04:01.138Z,35.70
2023-02-23T05:06:28.862Z,38.00
2023-02-23T05:08:56.525Z,40.40
2023-02-23T05:11:25.076Z,33.00
2023-02-23T05:13:54.206Z,37.10
2023-02-23T05:16:21.934Z,30.10
2023-02-23T05:18:49.730Z,37.50
2023-02-23T05:21:18.245Z,34.60
2023-02-23T05:23:46.126Z,38.30
2023-02-23T05:26:14.662Z,36.10
2023-02-23T05:28:43.284Z,38.40
2023-02-23T05:31:11.641Z,37.60
2023-02-23T05:33:42.644Z,37.50
2023-02-23T05:36:12.384Z,34.00
2023-02-23T05:38:40.945Z,41.00
2023-02-23T05:41:10.238Z,39.00
2023-02-23T05:43:38.305Z,39.20
2023-02-23T05:46:17.449Z,42.50
2023-02-23T05:48:45.362Z,37.10
2023-02-23T05:51:15.225Z,40.80
2023-02-23T05:53:43.299Z,40.70
2023-02-23T05:56:13.753Z,39.40
2023-02-23T05:58:41.489Z,40.50
2023-02-23T06:01:09.191Z,43.60
2023-02-23T06:03:37.573Z,35.90
2023-02-23T06:06:06.228Z,42.00
2023-02-23T06:08:34.096Z,42.70
2023-02-23T06:11:02.629Z,41.00
2023-02-23T06:13:31.588Z,42.30
2023-02-23T06:15:59.714Z,38.90
2023-02-23T06:18:28.096Z,37.90
2023-02-23T06:20:59.440Z,43.50
2023-02-23T06:23:31.868Z,43.50
2023-02-23T06:26:00.283Z,52.20
2023-02-23T06:28:28.378Z,43.50
2023-02-23T06:30:56.520Z,44.60
2023-02-23T06:33:24.608Z,44.30
2023-02-23T06:35:52.845Z,45.10
2023-02-23T06:38:21.135Z,42.90
2023-02-23T06:40:48.915Z,51.60
2023-02-23T06:43:16.641Z,40.40
2023-02-23T06:45:46.531Z,48.50
2023-02-23T06:48:14.430Z,41.60
2023-02-23T06:50:42.280Z,43.90
2023-02-23T06:53:10.035Z,39.60
2023-02-23T06:55:37.724Z,43.70
2023-02-23T06:58:06.476Z,44.70
2023-02-23T07:00:34.316Z,41.50
2023-02-23T07:03:02.047Z,43.70
2023-02-23T07:05:29.893Z,41.60
2023-02-23T07:07:57.594Z,47.50
2023-02-23T07:10:25.630Z,50.70
2023-02-23T07:12:54.408Z,46.20
2023-02-23T07:15:22.549Z,47.90
2023-02-23T07:17:52.756Z,44.60
2023-02-23T07:20:20.513Z,56.80
2023-02-23T07:22:48.393Z,48.70
2023-02-23T07:25:16.230Z,48.10
2023-02-23T07:27:45.335Z,48.50
2023-02-23T07:30:13.843Z,43.70
2023-02-23T07:32:42.105Z,47.50
2023-02-23T07:35:10.228Z,48.10
2023-02-23T07:37:37.988Z,51.10
2023-02-23T07:40:06.212Z,48.00
2023-02-23T07:42:34.189Z,50.90
2023-02-23T07:45:02.528Z,47.50
2023-02-23T07:47:31.147Z,49.70
2023-02-23T07:50:00.637Z,55.80
2023-02-23T07:52:28.596Z,55.10
2023-02-23T07:54:57.082Z,60.60
2023-02-23T07:57:25.215Z,60.20
2023-02-23T07:59:52.934Z,46.40
2023-02-23T08:02:20.826Z,54.00
2023-02-23T08:04:48.672Z,58.90
2023-02-23T08:07:16.692Z,51.50
2023-02-23T08:09:44.441Z,55.10
2023-02-23T08:12:13.018Z,48.60
2023-02-23T08:14:40.828Z,53.10
2023-02-23T08:17:09.764Z,54.90
2023-02-23T08:19:37.705Z,54.80
2023-02-23T08:22:08.301Z,57.10
2023-02-23T08:27:05.600Z,52.20
2023-02-23T08:29:34.896Z,59.00
2023-02-23T08:32:04.440Z,62.60
2023-02-23T08:34:32.427Z,56.30
2023-02-23T08:37:00.200Z,57.30
2023-02-23T08:39:28.189Z,54.20
2023-02-23T08:41:56.091Z,60.70
2023-02-23T08:44:23.930Z,57.30
2023-02-23T08:46:53.803Z,55.40
2023-02-23T08:49:22.536Z,57.00
2023-02-23T08:51:50.295Z,56.40
2023-02-23T08:54:18.052Z,51.60
2023-02-23T08:56:45.859Z,50.70
2023-02-23T08:59:14.247Z,56.70
2023-02-23T14:02:41.509Z,42.00
2023-02-23T14:05:19.211Z,41.10
2023-02-23T14:07:51.730Z,41.30
2023-02-23T14:10:27.736Z,37.20
2023-02-23T14:13:13.509Z,40.90
2023-02-23T14:16:10.843Z,37.20
2023-02-23T14:19:37.781Z,38.00
2023-02-23T14:22:10.430Z,36.50
2023-02-23T14:24:38.642Z,42.40
2023-02-23T14:27:41.339Z,40.20
2023-02-23T14:30:12.403Z,43.50
2023-02-23T14:32:43.577Z,36.50
2023-02-23T14:35:33.671Z,38.10
2023-02-23T14:38:16.821Z,36.80
2023-02-23T14:40:48.804Z,34.40
2023-02-23T14:46:02.021Z,42.60
2023-02-23T14:48:30.077Z,39.70
2023-02-23T14:51:37.171Z,44.30
2023-02-23T14:54:11.457Z,41.40
2023-02-23T14:56:47.026Z,43.30
2023-02-23T14:59:23.017Z,40.80
2023-02-23T15:01:51.529Z,41.70
2023-02-23T15:04:25.684Z,38.60
2023-02-23T15:06:56.440Z,38.90
2023-02-23T15:09:33.299Z,36.10
2023-02-23T15:12:09.142Z,37.60
2023-02-23T15:14:37.973Z,36.40
2023-02-23T15:17:06.223Z,37.60
2023-02-23T15:19:35.975Z,39.20
2023-02-23T15:22:04.946Z,37.00
2023-02-23T15:24:42.092Z,36.90
2023-02-23T15:27:22.814Z,35.00
2023-02-23T15:29:50.768Z,38.90
2023-02-23T15:32:21.404Z,35.50
2023-02-23T15:34:49.906Z,38.50
2023-02-23T15:37:51.864Z,39.10
2023-02-23T15:40:27.668Z,37.50
2023-02-23T15:42:57.964Z,38.00
2023-02-23T15:45:39.795Z,41.00
2023-02-23T15:48:17.237Z,43.70
2023-02-23T15:50:50.618Z,36.60
2023-02-23T15:53:35.440Z,46.60
2023-02-23T15:56:12.639Z,43.80
2023-02-23T15:58:56.058Z,41.70
2023-02-23T16:01:30.278Z,44.10
2023-02-23T16:04:02.228Z,36.80
2023-02-23T16:06:38.646Z,38.80
2023-02-23T16:09:26.768Z,39.40
2023-02-23T16:12:00.337Z,39.40
2023-02-23T16:14:34.693Z,42.50
2023-02-23T16:17:11.224Z,39.40
2023-02-23T16:19:41.574Z,43.70
2023-02-23T16:22:19.530Z,43.80
2023-02-23T16:24:56.663Z,40.60
2023-02-23T16:27:25.681Z,41.10
2023-02-23T16:30:00.502Z,35.00
2023-02-23T16:32:44.235Z,37.90
2023-02-23T16:35:14.698Z,42.00
2023-02-23T16:38:02.096Z,34.10
2023-02-23T16:40:30.444Z,37.80
2023-02-23T16:42:59.652Z,37.40
2023-02-23T16:45:29.510Z,42.70
2023-02-23T16:48:02.304Z,39.40
2023-02-23T16:50:32.643Z,35.90
2023-02-23T16:53:02.237Z,40.20
2023-02-23T16:55:30.556Z,42.80
2023-02-23T16:58:00.962Z,42.10
2023-02-23T17:00:31.496Z,37.30
2023-02-23T17:03:00.950Z,40.80
2023-02-23T17:05:29.328Z,37.30
2023-02-23T17:07:58.887Z,40.40
2023-02-23T17:10:30.402Z,33.60
2023-02-23T17:13:05.155Z,35.40
2023-02-23T17:15:36.762Z,35.50
2023-02-23T17:18:05.604Z,39.60
2023-02-23T17:20:33.391Z,39.00
2023-02-23T17:23:02.340Z,32.60
2023-02-23T17:25:30.169Z,37.20
2023-02-23T17:27:58.850Z,41.50
2023-02-23T17:30:27.201Z,39.20
2023-02-23T17:32:57.205Z,43.20
2023-02-23T17:35:25.808Z,44.10
2023-02-23T17:37:54.701Z,43.80
2023-02-23T17:40:31.014Z,37.10
2023-02-23T17:43:01.027Z,43.50
2023-02-23T17:45:29.577Z,44.80
2023-02-23T17:47:58.276Z,41.80
2023-02-23T17:50:29.093Z,41.40
2023-02-23T17:52:57.316Z,42.60
2023-02-23T17:55:25.856Z,48.50
2023-02-23T17:57:53.655Z,41.90
2023-02-23T18:00:22.505Z,42.20
2023-02-23T18:02:50.292Z,42.80
2023-02-23T18:05:18.387Z,40.20
2023-02-23T18:07:48.234Z,45.90
2023-02-23T18:10:16.989Z,44.60
2023-02-23T18:12:44.988Z,48.60
2023-02-23T18:15:12.827Z,48.00
2023-02-23T18:17:40.495Z,48.80
2023-02-23T18:20:09.098Z,45.90
2023-02-23T18:22:37.025Z,49.20
2023-02-23T18:25:05.727Z,48.00
2023-02-23T18:27:33.520Z,47.40
2023-02-23T18:30:01.246Z,50.40
2023-02-23T18:32:28.992Z,46.00
2023-02-23T18:34:57.143Z,47.00
2023-02-23T18:37:25.387Z,47.10
2023-02-23T18:39:54.310Z,48.20
2023-02-23T18:42:21.938Z,49.90
2023-02-23T18:44:49.762Z,47.00
2023-02-23T18:47:17.877Z,52.10
2023-02-23T18:49:45.664Z,46.90
2023-02-23T18:52:13.577Z,49.90
2023-02-23T18:54:41.624Z,52.10
2023-02-23T18:57:09.381Z,48.20
2023-02-23T18:59:37.139Z,47.80
2023-02-23T19:02:04.930Z,51.00
2023-02-23T19:04:32.749Z,55.00
2023-02-23T19:07:00.381Z,64.70
2023-02-23T19:09:28.178Z,79.10
2023-02-23T19:11:55.900Z,75.20
2023-02-23T19:14:40.842Z,58.30
2023-02-23T19:17:11.608Z,64.80
2023-02-23T19:19:39.404Z,59.90
2023-02-23T19:22:07.060Z,57.00
2023-02-23T19:24:37.025Z,61.50
2023-02-23T19:27:04.844Z,58.80
2023-02-23T19:29:32.583Z,56.40
2023-02-23T19:32:00.423Z,55.80
2023-02-23T19:34:28.917Z,59.50
2023-02-23T19:36:57.223Z,62.10
2023-02-23T19:39:25.272Z,58.80
2023-02-23T19:41:53.268Z,57.00
2023-02-23T19:44:21.441Z,58.60
2023-02-23T19:46:49.195Z,50.50
2023-02-23T19:49:17.090Z,55.30
2023-02-23T19:51:45.084Z,54.10
2023-02-23T19:54:12.742Z,51.50
2023-02-23T19:56:40.708Z,51.80
2023-02-23T19:59:08.652Z,56.90
2023-02-23T20:01:37.375Z,54.40
2023-02-23T20:04:06.983Z,52.40
2023-02-23T20:06:40.858Z,56.40
2023-02-23T20:09:09.598Z,63.00
2023-02-23T20:11:37.545Z,52.90
2023-02-23T20:14:07.456Z,54.60
2023-02-23T20:16:35.984Z,52.50
2023-02-23T20:19:06.507Z,49.90
2023-02-23T20:21:34.557Z,46.70
2023-02-23T20:24:03.770Z,44.30
2023-02-23T20:26:35.382Z,47.10
2023-02-23T20:29:06.793Z,41.00
2023-02-23T20:31:35.775Z,47.00
2023-02-23T20:34:07.811Z,51.40
2023-02-23T20:36:35.909Z,44.60
2023-02-23T20:39:05.405Z,46.00
2023-02-23T20:41:33.376Z,45.40
2023-02-23T20:44:01.393Z,47.20
2023-02-23T20:46:30.659Z,46.90
2023-02-23T20:48:59.449Z,47.50
2023-02-23T20:51:27.581Z,44.40
2023-02-23T20:53:55.370Z,42.20
2023-02-23T20:56:23.300Z,43.90
2023-02-23T20:58:54.313Z,40.80
2023-02-23T21:01:25.652Z,47.90
2023-02-23T21:03:54.994Z,46.90
2023-02-23T21:06:24.620Z,46.60
2023-02-23T21:08:55.792Z,47.50
2023-02-23T21:11:27.278Z,56.40
2023-02-23T21:13:55.459Z,49.90
2023-02-23T21:16:24.284Z,57.00
2023-02-23T21:19:04.013Z,49.50
2023-02-23T21:21:46.380Z,66.00
2023-02-23T21:24:15.419Z,75.60
2023-02-23T21:26:43.579Z,66.10
2023-02-23T21:29:16.417Z,79.60
2023-02-23T21:31:46.324Z,67.90
2023-02-23T21:34:18.709Z,63.40
2023-02-23T21:36:47.601Z,72.20
2023-02-23T21:39:15.402Z,74.70
2023-02-23T21:41:43.198Z,82.80
2023-02-23T21:44:11.706Z,84.00
2023-02-23T21:46:40.616Z,73.20
2023-02-23T21:49:09.784Z,79.30
2023-02-23T21:51:38.263Z,78.60
2023-02-23T21:54:06.173Z,63.30
2023-02-23T21:56:34.858Z,64.10
2023-02-23T21:59:04.590Z,62.80
2023-02-23T22:01:34.960Z,60.30
2023-02-23T22:04:04.136Z,63.40
2023-02-23T22:06:40.016Z,56.40
2023-02-23T22:09:10.920Z,59.50
2023-02-23T22:11:43.726Z,59.30
2023-02-23T22:14:11.821Z,56.00
2023-02-23T22:16:43.322Z,63.20
2023-02-23T22:19:11.771Z,64.70
2023-02-23T22:21:41.751Z,58.60
2023-02-23T22:24:11.618Z,60.40
2023-02-23T22:26:41.854Z,68.90
2023-02-23T22:29:10.579Z,64.20
2023-02-23T22:31:39.043Z,65.90
2023-02-23T22:34:07.425Z,58.20
2023-02-23T22:36:35.694Z,66.30
2023-02-23T22:39:07.205Z,67.80
2023-02-23T22:41:42.227Z,64.50
2023-02-23T22:44:14.629Z,59.00
2023-02-23T22:46:43.073Z,56.60
2023-02-23T22:49:11.799Z,61.40
2023-02-23T22:51:39.529Z,60.40
2023-02-23T22:54:07.467Z,58.10
2023-02-23T22:56:39.564Z,60.20
2023-02-23T22:59:10.714Z,63.40
2023-02-23T23:01:39.283Z,55.80
2023-02-23T23:04:10.439Z,51.50
2023-02-23T23:06:41.496Z,53.80
2023-02-23T23:09:14.901Z,53.40
2023-02-23T23:11:43.012Z,54.90
2023-02-23T23:14:12.284Z,58.50
2023-02-23T23:16:48.158Z,56.20
2023-02-23T23:19:19.083Z,56.70
2023-02-23T23:21:46.792Z,56.40
2023-02-23T23:24:15.601Z,61.00
2023-02-23T23:26:44.355Z,56.40
2023-02-23T23:29:14.583Z,53.90
2023-02-23T23:31:45.588Z,57.30
2023-02-23T23:34:16.646Z,58.60
2023-02-23T23:36:53.294Z,52.10
2023-02-23T23:39:22.683Z,51.10
2023-02-23T23:41:50.484Z,55.90
2023-02-23T23:44:23.841Z,48.70
2023-02-23T23:46:52.689Z,51.70
2023-02-23T23:49:22.403Z,51.50
2023-02-23T23:51:52.523Z,54.00
2023-02-23T23:54:23.005Z,53.40
2023-02-23T23:56:51.077Z,48.50
2023-02-23T23:59:21.302Z,44.30
